Time;durP1;ratioP1;P1;durP2;ratioP2;P2;SDS_P1;SDS_P2;PMS_P1;PMS_P2;Temp;Humidity;BMP_temperature;BMP_pressure;BME280_temperature;BME280_humidity;BME280_pressure;Samples;Min_cycle;Max_cycle;Signal;HPM_P1;HPM_P2
2022/04/19 00:00:00;;;;;;;3.05;2.35;;;;;;;3.17;42.00586;94860.78;;;;
2022/04/19 00:01:00;;;;;;;3.05;2.35;;;;;;;3.17;42.00586;94860.78;;;;
2022/04/19 00:02:01;;;;;;;3.05;2.35;;;;;;;3.17;42.00586;94860.78;;;;
2022/04/19 00:03:02;;;;;;;3.65;2.2;;;;;;;3.03;42.20508;94850.19;;;;
2022/04/19 00:04:03;;;;;;;3.65;2.2;;;;;;;3.03;42.20508;94850.19;;;;
2022/04/19 00:05:04;;;;;;;3.65;2.2;;;;;;;3.03;42.20508;94850.19;;;;
2022/04/19 00:06:06;;;;;;;3.65;2.2;;;;;;;3.03;42.20508;94850.19;;;;
2022/04/19 00:07:09;;;;;;;3.65;2.2;;;;;;;3.03;42.20508;94850.19;;;;
2022/04/19 00:08:10;;;;;;;3.65;2.2;;;;;;;3.03;42.20508;94850.19;;;;
2022/04/19 00:09:12;;;;;;;3.65;2.2;;;;;;;3.03;42.20508;94850.19;;;;
2022/04/19 00:10:12;;;;;;;3.65;2.2;;;;;;;3.03;42.20508;94850.19;;;;
2022/04/19 00:11:13;;;;;;;3.65;2.2;;;;;;;3.03;42.20508;94850.19;;;;
2022/04/19 00:12:14;;;;;;;3.65;2.2;;;;;;;3.03;42.20508;94850.19;;;;
2022/04/19 00:13:16;;;;;;;6.1;2.15;;;;;;;2.88;42.44434;94847.34;;;;
2022/04/19 00:14:16;;;;;;;6.1;2.15;;;;;;;2.88;42.44434;94847.34;;;;
2022/04/19 00:15:17;;;;;;;6.1;2.15;;;;;;;2.88;42.44434;94847.34;;;;
2022/04/19 00:16:17;;;;;;;6.1;2.15;;;;;;;2.88;42.44434;94847.34;;;;
2022/04/19 00:17:18;;;;;;;6.1;2.15;;;;;;;2.88;42.44434;94847.34;;;;
2022/04/19 00:18:21;;;;;;;6.1;2.15;;;;;;;2.88;42.44434;94847.34;;;;
2022/04/19 00:19:25;;;;;;;6.1;2.15;;;;;;;2.88;42.44434;94847.34;;;;
2022/04/19 00:20:26;;;;;;;6.1;2.15;;;;;;;2.88;42.44434;94847.34;;;;
2022/04/19 00:21:27;;;;;;;6.1;2.15;;;;;;;2.88;42.44434;94847.34;;;;
2022/04/19 00:22:28;;;;;;;6.1;2.15;;;;;;;2.88;42.44434;94847.34;;;;
2022/04/19 00:23:28;;;;;;;6.1;2.15;;;;;;;2.88;42.44434;94847.34;;;;
2022/04/19 00:24:29;;;;;;;3.7;2.35;;;;;;;2.77;42.67676;94823.54;;;;
2022/04/19 00:25:30;;;;;;;3.7;2.35;;;;;;;2.77;42.67676;94823.54;;;;
2022/04/19 00:26:32;;;;;;;3.7;2.35;;;;;;;2.77;42.67676;94823.54;;;;
2022/04/19 00:27:33;;;;;;;3.7;2.35;;;;;;;2.77;42.67676;94823.54;;;;
2022/04/19 00:28:33;;;;;;;3.7;2.35;;;;;;;2.77;42.67676;94823.54;;;;
2022/04/19 00:29:34;;;;;;;3.7;2.35;;;;;;;2.77;42.67676;94823.54;;;;
2022/04/19 00:30:34;;;;;;;3.7;2.35;;;;;;;2.77;42.67676;94823.54;;;;
2022/04/19 00:31:35;;;;;;;3.7;2.35;;;;;;;2.77;42.67676;94823.54;;;;
2022/04/19 00:32:35;;;;;;;3.7;2.35;;;;;;;2.77;42.67676;94823.54;;;;
2022/04/19 00:33:39;;;;;;;3.7;2.35;;;;;;;2.77;42.67676;94823.54;;;;
2022/04/19 00:34:39;;;;;;;4;2.25;;;;;;;2.68;42.89063;94804.75;;;;
2022/04/19 00:35:39;;;;;;;4;2.25;;;;;;;2.68;42.89063;94804.75;;;;
2022/04/19 00:36:40;;;;;;;4;2.25;;;;;;;2.68;42.89063;94804.75;;;;
2022/04/19 00:37:40;;;;;;;4;2.25;;;;;;;2.68;42.89063;94804.75;;;;
2022/04/19 00:38:41;;;;;;;4;2.25;;;;;;;2.68;42.89063;94804.75;;;;
2022/04/19 00:39:42;;;;;;;4;2.25;;;;;;;2.68;42.89063;94804.75;;;;
2022/04/19 00:40:42;;;;;;;4;2.25;;;;;;;2.68;42.89063;94804.75;;;;
2022/04/19 00:41:43;;;;;;;4;2.25;;;;;;;2.68;42.89063;94804.75;;;;
2022/04/19 00:42:44;;;;;;;4;2.25;;;;;;;2.68;42.89063;94804.75;;;;
2022/04/19 00:43:44;;;;;;;4;2.25;;;;;;;2.68;42.89063;94804.75;;;;
2022/04/19 00:44:45;;;;;;;4;2.25;;;;;;;2.68;42.89063;94804.75;;;;
2022/04/19 00:45:45;;;;;;;2.75;2.2;;;;;;;2.68;43.12402;94795.29;;;;
2022/04/19 00:46:46;;;;;;;2.75;2.2;;;;;;;2.68;43.12402;94795.29;;;;
2022/04/19 00:47:46;;;;;;;2.75;2.2;;;;;;;2.68;43.12402;94795.29;;;;
2022/04/19 00:48:47;;;;;;;2.75;2.2;;;;;;;2.68;43.12402;94795.29;;;;
2022/04/19 00:49:47;;;;;;;2.75;2.2;;;;;;;2.68;43.12402;94795.29;;;;
2022/04/19 00:50:50;;;;;;;2.75;2.2;;;;;;;2.68;43.12402;94795.29;;;;
2022/04/19 00:51:56;;;;;;;2.75;2.2;;;;;;;2.68;43.12402;94795.29;;;;
2022/04/19 00:52:57;;;;;;;2.75;2.2;;;;;;;2.68;43.12402;94795.29;;;;
2022/04/19 00:53:58;;;;;;;2.75;2.2;;;;;;;2.68;43.12402;94795.29;;;;
2022/04/19 00:54:59;;;;;;;2.75;2.2;;;;;;;2.68;43.12402;94795.29;;;;
2022/04/19 00:56:02;;;;;;;2.8;2.25;;;;;;;2.76;43.35449;94780.98;;;;
2022/04/19 00:57:03;;;;;;;2.8;2.25;;;;;;;2.76;43.35449;94780.98;;;;
2022/04/19 00:58:06;;;;;;;2.8;2.25;;;;;;;2.76;43.35449;94780.98;;;;
2022/04/19 00:59:09;;;;;;;2.8;2.25;;;;;;;2.76;43.35449;94780.98;;;;
2022/04/19 01:00:12;;;;;;;2.8;2.25;;;;;;;2.76;43.35449;94780.98;;;;
2022/04/19 01:01:14;;;;;;;2.8;2.25;;;;;;;2.76;43.35449;94780.98;;;;
2022/04/19 01:02:15;;;;;;;2.8;2.25;;;;;;;2.76;43.35449;94780.98;;;;
2022/04/19 01:03:15;;;;;;;2.8;2.25;;;;;;;2.76;43.35449;94780.98;;;;
2022/04/19 01:04:16;;;;;;;2.8;2.25;;;;;;;2.76;43.35449;94780.98;;;;
2022/04/19 01:05:17;;;;;;;2.8;2.25;;;;;;;2.76;43.35449;94780.98;;;;
2022/04/19 01:06:18;;;;;;;2.8;2.25;;;;;;;2.76;43.35449;94780.98;;;;
2022/04/19 01:07:19;;;;;;;3.3;2.45;;;;;;;2.76;43.57715;94770.31;;;;
2022/04/19 01:08:21;;;;;;;3.3;2.45;;;;;;;2.76;43.57715;94770.31;;;;
2022/04/19 01:09:23;;;;;;;3.3;2.45;;;;;;;2.76;43.57715;94770.31;;;;
2022/04/19 01:10:23;;;;;;;3.3;2.45;;;;;;;2.76;43.57715;94770.31;;;;
2022/04/19 01:13:30;;;;;;;3.3;2.45;;;;;;;2.76;43.57715;94770.31;;;;
2022/04/19 01:14:31;;;;;;;3.3;2.45;;;;;;;2.76;43.57715;94770.31;;;;
2022/04/19 01:15:34;;;;;;;3.3;2.45;;;;;;;2.76;43.57715;94770.31;;;;
2022/04/19 01:16:34;;;;;;;3.3;2.45;;;;;;;2.76;43.57715;94770.31;;;;
2022/04/19 01:17:35;;;;;;;2.6;2.4;;;;;;;2.82;43.75391;94756.2;;;;
2022/04/19 01:18:38;;;;;;;2.6;2.4;;;;;;;2.82;43.75391;94756.2;;;;
2022/04/19 01:19:39;;;;;;;2.6;2.4;;;;;;;2.82;43.75391;94756.2;;;;
2022/04/19 01:20:41;;;;;;;2.6;2.4;;;;;;;2.82;43.75391;94756.2;;;;
2022/04/19 01:21:42;;;;;;;2.6;2.4;;;;;;;2.82;43.75391;94756.2;;;;
2022/04/19 01:22:43;;;;;;;2.6;2.4;;;;;;;2.82;43.75391;94756.2;;;;
2022/04/19 01:23:49;;;;;;;2.6;2.4;;;;;;;2.82;43.75391;94756.2;;;;
2022/04/19 01:24:50;;;;;;;2.6;2.4;;;;;;;2.82;43.75391;94756.2;;;;
2022/04/19 01:25:50;;;;;;;2.6;2.4;;;;;;;2.82;43.75391;94756.2;;;;
2022/04/19 01:26:51;;;;;;;2.6;2.4;;;;;;;2.82;43.75391;94756.2;;;;
2022/04/19 01:27:54;;;;;;;2.6;2.4;;;;;;;2.82;43.75391;94756.2;;;;
2022/04/19 01:28:56;;;;;;;2.6;2.4;;;;;;;2.82;43.75391;94756.2;;;;
2022/04/19 01:30:01;;;;;;;2.6;2.4;;;;;;;2.82;43.75391;94756.2;;;;
2022/04/19 01:31:05;;;;;;;2.6;2.4;;;;;;;2.82;43.75391;94756.2;;;;
2022/04/19 01:32:05;;;;;;;2.6;2.4;;;;;;;2.82;43.75391;94756.2;;;;
2022/04/19 01:33:07;;;;;;;2.6;2.4;;;;;;;2.82;43.75391;94756.2;;;;
2022/04/19 01:34:08;;;;;;;2.6;2.4;;;;;;;2.82;43.75391;94756.2;;;;
2022/04/19 01:35:09;;;;;;;2.6;2.4;;;;;;;2.82;43.75391;94756.2;;;;
2022/04/19 01:36:12;;;;;;;2.6;2.4;;;;;;;2.82;43.75391;94756.2;;;;
2022/04/19 01:37:15;;;;;;;2.6;2.4;;;;;;;2.82;43.75391;94756.2;;;;
2022/04/19 01:38:15;;;;;;;2.6;2.4;;;;;;;2.82;43.75391;94756.2;;;;
2022/04/19 01:39:16;;;;;;;3.75;2.2;;;;;;;2.84;44.13672;94741.24;;;;
2022/04/19 01:40:16;;;;;;;3.75;2.2;;;;;;;2.84;44.13672;94741.24;;;;
2022/04/19 01:41:17;;;;;;;3.75;2.2;;;;;;;2.84;44.13672;94741.24;;;;
2022/04/19 01:42:17;;;;;;;3.75;2.2;;;;;;;2.84;44.13672;94741.24;;;;
2022/04/19 01:43:19;;;;;;;3.75;2.2;;;;;;;2.84;44.13672;94741.24;;;;
2022/04/19 01:44:20;;;;;;;3.75;2.2;;;;;;;2.84;44.13672;94741.24;;;;
2022/04/19 01:45:20;;;;;;;3.75;2.2;;;;;;;2.84;44.13672;94741.24;;;;
2022/04/19 01:46:23;;;;;;;3.75;2.2;;;;;;;2.84;44.13672;94741.24;;;;
2022/04/19 01:47:23;;;;;;;3.75;2.2;;;;;;;2.84;44.13672;94741.24;;;;
2022/04/19 01:48:24;;;;;;;3.75;2.2;;;;;;;2.84;44.13672;94741.24;;;;
2022/04/19 01:49:24;;;;;;;2.8;2.1;;;;;;;2.95;44.2959;94737.16;;;;
2022/04/19 01:50:26;;;;;;;2.8;2.1;;;;;;;2.95;44.2959;94737.16;;;;
2022/04/19 01:51:28;;;;;;;2.8;2.1;;;;;;;2.95;44.2959;94737.16;;;;
2022/04/19 01:52:30;;;;;;;2.8;2.1;;;;;;;2.95;44.2959;94737.16;;;;
2022/04/19 01:53:30;;;;;;;2.8;2.1;;;;;;;2.95;44.2959;94737.16;;;;
2022/04/19 01:54:31;;;;;;;2.8;2.1;;;;;;;2.95;44.2959;94737.16;;;;
2022/04/19 01:55:31;;;;;;;2.8;2.1;;;;;;;2.95;44.2959;94737.16;;;;
2022/04/19 01:56:32;;;;;;;2.8;2.1;;;;;;;2.95;44.2959;94737.16;;;;
2022/04/19 01:57:33;;;;;;;2.8;2.1;;;;;;;2.95;44.2959;94737.16;;;;
2022/04/19 01:58:34;;;;;;;2.8;2.1;;;;;;;2.95;44.2959;94737.16;;;;
2022/04/19 01:59:35;;;;;;;2.8;2.1;;;;;;;2.95;44.2959;94737.16;;;;
2022/04/19 02:00:35;;;;;;;2.9;2.4;;;;;;;3.01;44.31348;94727.4;;;;
2022/04/19 02:01:35;;;;;;;2.9;2.4;;;;;;;3.01;44.31348;94727.4;;;;
2022/04/19 02:02:36;;;;;;;2.9;2.4;;;;;;;3.01;44.31348;94727.4;;;;
2022/04/19 02:03:37;;;;;;;2.9;2.4;;;;;;;3.01;44.31348;94727.4;;;;
2022/04/19 02:04:37;;;;;;;2.9;2.4;;;;;;;3.01;44.31348;94727.4;;;;
2022/04/19 02:05:38;;;;;;;2.9;2.4;;;;;;;3.01;44.31348;94727.4;;;;
2022/04/19 02:06:40;;;;;;;2.9;2.4;;;;;;;3.01;44.31348;94727.4;;;;
2022/04/19 02:07:40;;;;;;;2.9;2.4;;;;;;;3.01;44.31348;94727.4;;;;
2022/04/19 02:08:43;;;;;;;2.9;2.4;;;;;;;3.01;44.31348;94727.4;;;;
2022/04/19 02:09:44;;;;;;;2.9;2.4;;;;;;;3.01;44.31348;94727.4;;;;
2022/04/19 02:10:44;;;;;;;3.349999;2.4;;;;;;;2.95;44.48828;94726.37;;;;
2022/04/19 02:11:45;;;;;;;3.349999;2.4;;;;;;;2.95;44.48828;94726.37;;;;
2022/04/19 02:12:45;;;;;;;3.349999;2.4;;;;;;;2.95;44.48828;94726.37;;;;
2022/04/19 02:13:46;;;;;;;3.349999;2.4;;;;;;;2.95;44.48828;94726.37;;;;
2022/04/19 02:14:46;;;;;;;3.349999;2.4;;;;;;;2.95;44.48828;94726.37;;;;
2022/04/19 02:15:47;;;;;;;3.349999;2.4;;;;;;;2.95;44.48828;94726.37;;;;
2022/04/19 02:16:48;;;;;;;3.349999;2.4;;;;;;;2.95;44.48828;94726.37;;;;
2022/04/19 02:17:48;;;;;;;3.349999;2.4;;;;;;;2.95;44.48828;94726.37;;;;
2022/04/19 02:18:50;;;;;;;3.349999;2.4;;;;;;;2.95;44.48828;94726.37;;;;
2022/04/19 02:19:50;;;;;;;3.349999;2.4;;;;;;;2.95;44.48828;94726.37;;;;
2022/04/19 02:21:00;;;;;;;3.349999;2.4;;;;;;;2.95;44.48828;94726.37;;;;
2022/04/19 02:22:01;;;;;;;3;2.299999;;;;;;;2.84;44.69922;94725.25;;;;
2022/04/19 02:23:02;;;;;;;3;2.299999;;;;;;;2.84;44.69922;94725.25;;;;
2022/04/19 02:24:03;;;;;;;3;2.299999;;;;;;;2.84;44.69922;94725.25;;;;
2022/04/19 02:25:03;;;;;;;3;2.299999;;;;;;;2.84;44.69922;94725.25;;;;
2022/04/19 02:26:05;;;;;;;3;2.299999;;;;;;;2.84;44.69922;94725.25;;;;
2022/04/19 02:27:05;;;;;;;3;2.299999;;;;;;;2.84;44.69922;94725.25;;;;
2022/04/19 02:28:07;;;;;;;3;2.299999;;;;;;;2.84;44.69922;94725.25;;;;
2022/04/19 02:29:08;;;;;;;3;2.299999;;;;;;;2.84;44.69922;94725.25;;;;
2022/04/19 02:30:13;;;;;;;3;2.299999;;;;;;;2.84;44.69922;94725.25;;;;
2022/04/19 02:31:14;;;;;;;3;2.299999;;;;;;;2.84;44.69922;94725.25;;;;
2022/04/19 02:32:14;;;;;;;3.299999;2.299999;;;;;;;2.76;44.8916;94721.01;;;;
2022/04/19 02:33:15;;;;;;;3.299999;2.299999;;;;;;;2.76;44.8916;94721.01;;;;
2022/04/19 02:34:18;;;;;;;3.299999;2.299999;;;;;;;2.76;44.8916;94721.01;;;;
2022/04/19 02:35:20;;;;;;;3.299999;2.299999;;;;;;;2.76;44.8916;94721.01;;;;
2022/04/19 02:36:21;;;;;;;3.299999;2.299999;;;;;;;2.76;44.8916;94721.01;;;;
2022/04/19 02:37:21;;;;;;;3.299999;2.299999;;;;;;;2.76;44.8916;94721.01;;;;
2022/04/19 02:38:22;;;;;;;3.299999;2.299999;;;;;;;2.76;44.8916;94721.01;;;;
2022/04/19 02:39:23;;;;;;;3.299999;2.299999;;;;;;;2.76;44.8916;94721.01;;;;
2022/04/19 02:40:23;;;;;;;3.299999;2.299999;;;;;;;2.76;44.8916;94721.01;;;;
2022/04/19 02:41:25;;;;;;;3.299999;2.299999;;;;;;;2.76;44.8916;94721.01;;;;
2022/04/19 02:42:26;;;;;;;3.299999;2.299999;;;;;;;2.76;44.8916;94721.01;;;;
2022/04/19 02:43:26;;;;;;;2.35;2.1;;;;;;;2.71;45.03516;94712.81;;;;
2022/04/19 02:44:27;;;;;;;2.35;2.1;;;;;;;2.71;45.03516;94712.81;;;;
2022/04/19 02:45:28;;;;;;;2.35;2.1;;;;;;;2.71;45.03516;94712.81;;;;
2022/04/19 02:46:29;;;;;;;2.35;2.1;;;;;;;2.71;45.03516;94712.81;;;;
2022/04/19 02:47:31;;;;;;;2.35;2.1;;;;;;;2.71;45.03516;94712.81;;;;
2022/04/19 02:48:31;;;;;;;2.35;2.1;;;;;;;2.71;45.03516;94712.81;;;;
2022/04/19 02:49:31;;;;;;;2.35;2.1;;;;;;;2.71;45.03516;94712.81;;;;
2022/04/19 02:50:33;;;;;;;2.35;2.1;;;;;;;2.71;45.03516;94712.81;;;;
2022/04/19 02:51:39;;;;;;;2.35;2.1;;;;;;;2.71;45.03516;94712.81;;;;
2022/04/19 02:52:40;;;;;;;2.35;2.1;;;;;;;2.71;45.03516;94712.81;;;;
2022/04/19 02:53:40;;;;;;;3.35;2.35;;;;;;;2.71;45.21484;94713.22;;;;
2022/04/19 02:54:41;;;;;;;3.35;2.35;;;;;;;2.71;45.21484;94713.22;;;;
2022/04/19 02:55:41;;;;;;;3.35;2.35;;;;;;;2.71;45.21484;94713.22;;;;
2022/04/19 02:56:42;;;;;;;3.35;2.35;;;;;;;2.71;45.21484;94713.22;;;;
2022/04/19 02:57:42;;;;;;;3.35;2.35;;;;;;;2.71;45.21484;94713.22;;;;
2022/04/19 02:58:44;;;;;;;3.35;2.35;;;;;;;2.71;45.21484;94713.22;;;;
2022/04/19 02:59:45;;;;;;;3.35;2.35;;;;;;;2.71;45.21484;94713.22;;;;
2022/04/19 03:00:46;;;;;;;3.35;2.35;;;;;;;2.71;45.21484;94713.22;;;;
2022/04/19 03:01:47;;;;;;;3.35;2.35;;;;;;;2.71;45.21484;94713.22;;;;
2022/04/19 03:02:48;;;;;;;3.35;2.35;;;;;;;2.71;45.21484;94713.22;;;;
2022/04/19 03:03:48;;;;;;;3.35;2.35;;;;;;;2.71;45.21484;94713.22;;;;
2022/04/19 03:04:49;;;;;;;3;2.25;;;;;;;2.88;45.40332;94710.47;;;;
2022/04/19 03:05:49;;;;;;;3;2.25;;;;;;;2.88;45.40332;94710.47;;;;
2022/04/19 03:06:50;;;;;;;3;2.25;;;;;;;2.88;45.40332;94710.47;;;;
2022/04/19 03:07:50;;;;;;;3;2.25;;;;;;;2.88;45.40332;94710.47;;;;
2022/04/19 03:08:51;;;;;;;3;2.25;;;;;;;2.88;45.40332;94710.47;;;;
2022/04/19 03:09:51;;;;;;;3;2.25;;;;;;;2.88;45.40332;94710.47;;;;
2022/04/19 03:10:52;;;;;;;3;2.25;;;;;;;2.88;45.40332;94710.47;;;;
2022/04/19 03:11:52;;;;;;;3;2.25;;;;;;;2.88;45.40332;94710.47;;;;
2022/04/19 03:12:53;;;;;;;3;2.25;;;;;;;2.88;45.40332;94710.47;;;;
2022/04/19 03:13:53;;;;;;;3;2.25;;;;;;;2.88;45.40332;94710.47;;;;
2022/04/19 03:14:55;;;;;;;2.45;2;;;;;;;3.02;45.40723;94698.81;;;;
2022/04/19 03:15:55;;;;;;;2.45;2;;;;;;;3.02;45.40723;94698.81;;;;
2022/04/19 03:16:56;;;;;;;2.45;2;;;;;;;3.02;45.40723;94698.81;;;;
2022/04/19 03:17:56;;;;;;;2.45;2;;;;;;;3.02;45.40723;94698.81;;;;
2022/04/19 03:18:57;;;;;;;2.45;2;;;;;;;3.02;45.40723;94698.81;;;;
2022/04/19 03:19:57;;;;;;;2.45;2;;;;;;;3.02;45.40723;94698.81;;;;
2022/04/19 03:20:57;;;;;;;2.45;2;;;;;;;3.02;45.40723;94698.81;;;;
2022/04/19 03:21:58;;;;;;;2.45;2;;;;;;;3.02;45.40723;94698.81;;;;
2022/04/19 03:28:09;;;;;;;4.15;2.45;;;;;;;3.16;45.57031;94690.3;;;;
2022/04/19 03:29:10;;;;;;;4.15;2.45;;;;;;;3.16;45.57031;94690.3;;;;
2022/04/19 03:30:14;;;;;;;4.15;2.45;;;;;;;3.16;45.57031;94690.3;;;;
2022/04/19 03:31:14;;;;;;;4.15;2.45;;;;;;;3.16;45.57031;94690.3;;;;
2022/04/19 03:32:15;;;;;;;4.15;2.45;;;;;;;3.16;45.57031;94690.3;;;;
2022/04/19 03:33:16;;;;;;;4.15;2.45;;;;;;;3.16;45.57031;94690.3;;;;
2022/04/19 03:34:17;;;;;;;4.15;2.45;;;;;;;3.16;45.57031;94690.3;;;;
2022/04/19 03:35:17;;;;;;;4.15;2.45;;;;;;;3.16;45.57031;94690.3;;;;
2022/04/19 03:36:18;;;;;;;4.550001;2.05;;;;;;;3.32;45.72559;94684.95;;;;
2022/04/19 03:37:19;;;;;;;4.550001;2.05;;;;;;;3.32;45.72559;94684.95;;;;
2022/04/19 03:38:19;;;;;;;4.550001;2.05;;;;;;;3.32;45.72559;94684.95;;;;
2022/04/19 03:39:20;;;;;;;4.550001;2.05;;;;;;;3.32;45.72559;94684.95;;;;
2022/04/19 03:40:20;;;;;;;4.550001;2.05;;;;;;;3.32;45.72559;94684.95;;;;
2022/04/19 03:41:21;;;;;;;4.550001;2.05;;;;;;;3.32;45.72559;94684.95;;;;
2022/04/19 03:42:22;;;;;;;4.550001;2.05;;;;;;;3.32;45.72559;94684.95;;;;
2022/04/19 03:43:23;;;;;;;4.550001;2.05;;;;;;;3.32;45.72559;94684.95;;;;
2022/04/19 03:44:25;;;;;;;4.550001;2.05;;;;;;;3.32;45.72559;94684.95;;;;
2022/04/19 03:45:26;;;;;;;4.550001;2.05;;;;;;;3.32;45.72559;94684.95;;;;
2022/04/19 03:46:26;;;;;;;4.550001;2.05;;;;;;;3.32;45.72559;94684.95;;;;
2022/04/19 03:47:27;;;;;;;3.2;2.15;;;;;;;3.53;45.9502;94687.81;;;;
2022/04/19 03:48:27;;;;;;;3.2;2.15;;;;;;;3.53;45.9502;94687.81;;;;
2022/04/19 03:49:28;;;;;;;3.2;2.15;;;;;;;3.53;45.9502;94687.81;;;;
2022/04/19 03:50:28;;;;;;;3.2;2.15;;;;;;;3.53;45.9502;94687.81;;;;
2022/04/19 03:51:29;;;;;;;3.2;2.15;;;;;;;3.53;45.9502;94687.81;;;;
2022/04/19 03:52:29;;;;;;;3.2;2.15;;;;;;;3.53;45.9502;94687.81;;;;
2022/04/19 03:53:30;;;;;;;3.2;2.15;;;;;;;3.53;45.9502;94687.81;;;;
2022/04/19 03:54:34;;;;;;;3.2;2.15;;;;;;;3.53;45.9502;94687.81;;;;
2022/04/19 03:55:35;;;;;;;3.2;2.15;;;;;;;3.53;45.9502;94687.81;;;;
2022/04/19 03:56:36;;;;;;;3.2;2.15;;;;;;;3.53;45.9502;94687.81;;;;
2022/04/19 03:57:36;;;;;;;2.5;2.2;;;;;;;3.74;45.87598;94694.35;;;;
2022/04/19 03:58:37;;;;;;;2.5;2.2;;;;;;;3.74;45.87598;94694.35;;;;
2022/04/19 03:59:38;;;;;;;2.5;2.2;;;;;;;3.74;45.87598;94694.35;;;;
2022/04/19 04:00:38;;;;;;;2.5;2.2;;;;;;;3.74;45.87598;94694.35;;;;
2022/04/19 04:01:39;;;;;;;2.5;2.2;;;;;;;3.74;45.87598;94694.35;;;;
2022/04/19 04:02:39;;;;;;;2.5;2.2;;;;;;;3.74;45.87598;94694.35;;;;
2022/04/19 04:03:40;;;;;;;2.5;2.2;;;;;;;3.74;45.87598;94694.35;;;;
2022/04/19 04:04:41;;;;;;;2.5;2.2;;;;;;;3.74;45.87598;94694.35;;;;
2022/04/19 04:05:42;;;;;;;2.5;2.2;;;;;;;3.74;45.87598;94694.35;;;;
2022/04/19 04:06:42;;;;;;;2.5;2.2;;;;;;;3.74;45.87598;94694.35;;;;
2022/04/19 04:07:43;;;;;;;2.5;2.2;;;;;;;3.74;45.87598;94694.35;;;;
2022/04/19 04:08:43;;;;;;;2.05;1.85;;;;;;;3.84;45.98242;94692.88;;;;
2022/04/19 04:09:44;;;;;;;2.05;1.85;;;;;;;3.84;45.98242;94692.88;;;;
2022/04/19 04:10:44;;;;;;;2.05;1.85;;;;;;;3.84;45.98242;94692.88;;;;
2022/04/19 04:11:45;;;;;;;2.05;1.85;;;;;;;3.84;45.98242;94692.88;;;;
2022/04/19 04:12:45;;;;;;;2.05;1.85;;;;;;;3.84;45.98242;94692.88;;;;
2022/04/19 04:13:46;;;;;;;2.05;1.85;;;;;;;3.84;45.98242;94692.88;;;;
2022/04/19 04:14:46;;;;;;;2.05;1.85;;;;;;;3.84;45.98242;94692.88;;;;
2022/04/19 04:15:46;;;;;;;2.05;1.85;;;;;;;3.84;45.98242;94692.88;;;;
2022/04/19 04:16:47;;;;;;;2.05;1.85;;;;;;;3.84;45.98242;94692.88;;;;
2022/04/19 04:17:47;;;;;;;2.05;1.85;;;;;;;3.84;45.98242;94692.88;;;;
2022/04/19 04:18:48;;;;;;;2.05;1.85;;;;;;;3.84;45.98242;94692.88;;;;
2022/04/19 04:19:48;;;;;;;2.05;1.85;;;;;;;3.84;45.98242;94692.88;;;;
2022/04/19 04:20:49;;;;;;;2.05;1.85;;;;;;;3.84;45.98242;94692.88;;;;
2022/04/19 04:21:50;;;;;;;2.05;1.85;;;;;;;3.84;45.98242;94692.88;;;;
2022/04/19 04:22:50;;;;;;;2.05;1.85;;;;;;;3.84;45.98242;94692.88;;;;
2022/04/19 04:23:50;;;;;;;2.05;1.85;;;;;;;3.84;45.98242;94692.88;;;;
2022/04/19 04:24:51;;;;;;;2.05;1.85;;;;;;;3.84;45.98242;94692.88;;;;
2022/04/19 04:25:51;;;;;;;2.05;1.85;;;;;;;3.84;45.98242;94692.88;;;;
2022/04/19 04:26:52;;;;;;;2.05;1.85;;;;;;;3.84;45.98242;94692.88;;;;
2022/04/19 04:27:53;;;;;;;2.05;1.85;;;;;;;3.84;45.98242;94692.88;;;;
2022/04/19 04:28:53;;;;;;;2.05;1.85;;;;;;;3.84;45.98242;94692.88;;;;
2022/04/19 04:29:53;;;;;;;3.25;1.9;;;;;;;4.08;46.26367;94687.38;;;;
2022/04/19 04:30:54;;;;;;;3.25;1.9;;;;;;;4.08;46.26367;94687.38;;;;
2022/04/19 04:31:54;;;;;;;3.25;1.9;;;;;;;4.08;46.26367;94687.38;;;;
2022/04/19 04:32:55;;;;;;;3.25;1.9;;;;;;;4.08;46.26367;94687.38;;;;
2022/04/19 04:33:55;;;;;;;3.25;1.9;;;;;;;4.08;46.26367;94687.38;;;;
2022/04/19 04:34:56;;;;;;;3.25;1.9;;;;;;;4.08;46.26367;94687.38;;;;
2022/04/19 04:35:58;;;;;;;3.25;1.9;;;;;;;4.08;46.26367;94687.38;;;;
2022/04/19 04:36:58;;;;;;;3.25;1.9;;;;;;;4.08;46.26367;94687.38;;;;
2022/04/19 04:37:59;;;;;;;3.25;1.9;;;;;;;4.08;46.26367;94687.38;;;;
2022/04/19 04:38:59;;;;;;;3.25;1.9;;;;;;;4.08;46.26367;94687.38;;;;
2022/04/19 04:39:59;;;;;;;3.25;1.9;;;;;;;4.08;46.26367;94687.38;;;;
2022/04/19 04:41:00;;;;;;;2.5;1.9;;;;;;;4.06;46.36719;94689.43;;;;
2022/04/19 04:42:01;;;;;;;2.5;1.9;;;;;;;4.06;46.36719;94689.43;;;;
2022/04/19 04:43:04;;;;;;;2.5;1.9;;;;;;;4.06;46.36719;94689.43;;;;
2022/04/19 04:44:04;;;;;;;2.5;1.9;;;;;;;4.06;46.36719;94689.43;;;;
2022/04/19 04:45:05;;;;;;;2.5;1.9;;;;;;;4.06;46.36719;94689.43;;;;
2022/04/19 04:51:21;;;;;;;2.75;2;;;;;;;3.88;46.64551;94686.61;;;;
2022/04/19 04:52:21;;;;;;;2.75;2;;;;;;;3.88;46.64551;94686.61;;;;
2022/04/19 04:53:22;;;;;;;2.75;2;;;;;;;3.88;46.64551;94686.61;;;;
2022/04/19 04:54:22;;;;;;;2.75;2;;;;;;;3.88;46.64551;94686.61;;;;
2022/04/19 04:55:24;;;;;;;2.75;2;;;;;;;3.88;46.64551;94686.61;;;;
2022/04/19 04:56:24;;;;;;;2.75;2;;;;;;;3.88;46.64551;94686.61;;;;
2022/04/19 04:57:25;;;;;;;2.75;2;;;;;;;3.88;46.64551;94686.61;;;;
2022/04/19 04:58:25;;;;;;;2.75;2;;;;;;;3.88;46.64551;94686.61;;;;
2022/04/19 04:59:26;;;;;;;2.75;2;;;;;;;3.88;46.64551;94686.61;;;;
2022/04/19 05:00:26;;;;;;;2.75;2;;;;;;;3.88;46.64551;94686.61;;;;
2022/04/19 05:01:27;;;;;;;2.75;2;;;;;;;3.88;46.64551;94686.61;;;;
2022/04/19 05:02:28;;;;;;;3.35;2.2;;;;;;;3.88;46.83789;94680.77;;;;
2022/04/19 05:03:28;;;;;;;3.35;2.2;;;;;;;3.88;46.83789;94680.77;;;;
2022/04/19 05:04:29;;;;;;;3.35;2.2;;;;;;;3.88;46.83789;94680.77;;;;
2022/04/19 05:05:29;;;;;;;3.35;2.2;;;;;;;3.88;46.83789;94680.77;;;;
2022/04/19 05:06:30;;;;;;;3.35;2.2;;;;;;;3.88;46.83789;94680.77;;;;
2022/04/19 05:07:30;;;;;;;3.35;2.2;;;;;;;3.88;46.83789;94680.77;;;;
2022/04/19 05:08:31;;;;;;;3.35;2.2;;;;;;;3.88;46.83789;94680.77;;;;
2022/04/19 05:09:31;;;;;;;3.35;2.2;;;;;;;3.88;46.83789;94680.77;;;;
2022/04/19 05:10:32;;;;;;;3.35;2.2;;;;;;;3.88;46.83789;94680.77;;;;
2022/04/19 05:11:32;;;;;;;3.35;2.2;;;;;;;3.88;46.83789;94680.77;;;;
2022/04/19 05:12:33;;;;;;;3.4;2.2;;;;;;;4.24;46.98242;94679.81;;;;
2022/04/19 05:13:33;;;;;;;3.4;2.2;;;;;;;4.24;46.98242;94679.81;;;;
2022/04/19 05:14:33;;;;;;;3.4;2.2;;;;;;;4.24;46.98242;94679.81;;;;
2022/04/19 05:15:34;;;;;;;3.4;2.2;;;;;;;4.24;46.98242;94679.81;;;;
2022/04/19 05:16:35;;;;;;;3.4;2.2;;;;;;;4.24;46.98242;94679.81;;;;
2022/04/19 05:17:36;;;;;;;3.4;2.2;;;;;;;4.24;46.98242;94679.81;;;;
2022/04/19 05:18:37;;;;;;;3.4;2.2;;;;;;;4.24;46.98242;94679.81;;;;
2022/04/19 05:19:37;;;;;;;3.4;2.2;;;;;;;4.24;46.98242;94679.81;;;;
2022/04/19 05:20:38;;;;;;;3.4;2.2;;;;;;;4.24;46.98242;94679.81;;;;
2022/04/19 05:21:38;;;;;;;3.4;2.2;;;;;;;4.24;46.98242;94679.81;;;;
2022/04/19 05:22:39;;;;;;;3.4;2.2;;;;;;;4.24;46.98242;94679.81;;;;
2022/04/19 05:23:39;;;;;;;2.95;1.9;;;;;;;4.75;46.5918;94682.72;;;;
2022/04/19 05:24:40;;;;;;;2.95;1.9;;;;;;;4.75;46.5918;94682.72;;;;
2022/04/19 05:25:40;;;;;;;2.95;1.9;;;;;;;4.75;46.5918;94682.72;;;;
2022/04/19 05:26:41;;;;;;;2.95;1.9;;;;;;;4.75;46.5918;94682.72;;;;
2022/04/19 05:27:42;;;;;;;2.95;1.9;;;;;;;4.75;46.5918;94682.72;;;;
2022/04/19 05:28:43;;;;;;;2.95;1.9;;;;;;;4.75;46.5918;94682.72;;;;
2022/04/19 05:29:43;;;;;;;2.95;1.9;;;;;;;4.75;46.5918;94682.72;;;;
2022/04/19 05:30:44;;;;;;;2.95;1.9;;;;;;;4.75;46.5918;94682.72;;;;
2022/04/19 05:31:44;;;;;;;2.95;1.9;;;;;;;4.75;46.5918;94682.72;;;;
2022/04/19 05:32:46;;;;;;;2.95;1.9;;;;;;;4.75;46.5918;94682.72;;;;
2022/04/19 05:33:46;;;;;;;2.15;1.95;;;;;;;5.24;46.40918;94683.82;;;;
2022/04/19 05:34:48;;;;;;;2.15;1.95;;;;;;;5.24;46.40918;94683.82;;;;
2022/04/19 05:35:48;;;;;;;2.15;1.95;;;;;;;5.24;46.40918;94683.82;;;;
2022/04/19 05:36:49;;;;;;;2.15;1.95;;;;;;;5.24;46.40918;94683.82;;;;
2022/04/19 05:37:49;;;;;;;2.15;1.95;;;;;;;5.24;46.40918;94683.82;;;;
2022/04/19 05:38:52;;;;;;;2.15;1.95;;;;;;;5.24;46.40918;94683.82;;;;
2022/04/19 05:39:53;;;;;;;2.15;1.95;;;;;;;5.24;46.40918;94683.82;;;;
2022/04/19 05:40:53;;;;;;;2.15;1.95;;;;;;;5.24;46.40918;94683.82;;;;
2022/04/19 05:41:54;;;;;;;2.15;1.95;;;;;;;5.24;46.40918;94683.82;;;;
2022/04/19 05:42:54;;;;;;;2.15;1.95;;;;;;;5.24;46.40918;94683.82;;;;
2022/04/19 05:43:55;;;;;;;2.15;1.95;;;;;;;5.24;46.40918;94683.82;;;;
2022/04/19 05:44:55;;;;;;;3.85;2.1;;;;;;;5.75;46.25195;94678.64;;;;
2022/04/19 05:45:57;;;;;;;3.85;2.1;;;;;;;5.75;46.25195;94678.64;;;;
2022/04/19 05:46:58;;;;;;;3.85;2.1;;;;;;;5.75;46.25195;94678.64;;;;
2022/04/19 05:47:58;;;;;;;3.85;2.1;;;;;;;5.75;46.25195;94678.64;;;;
2022/04/19 05:49:00;;;;;;;3.85;2.1;;;;;;;5.75;46.25195;94678.64;;;;
2022/04/19 05:50:01;;;;;;;3.85;2.1;;;;;;;5.75;46.25195;94678.64;;;;
2022/04/19 05:51:01;;;;;;;3.85;2.1;;;;;;;5.75;46.25195;94678.64;;;;
2022/04/19 05:52:02;;;;;;;3.85;2.1;;;;;;;5.75;46.25195;94678.64;;;;
2022/04/19 05:53:03;;;;;;;3.85;2.1;;;;;;;5.75;46.25195;94678.64;;;;
2022/04/19 05:54:03;;;;;;;3.85;2.1;;;;;;;5.75;46.25195;94678.64;;;;
2022/04/19 05:55:04;;;;;;;2.15;1.95;;;;;;;6.27;46.14746;94687.08;;;;
2022/04/19 05:56:06;;;;;;;2.15;1.95;;;;;;;6.27;46.14746;94687.08;;;;
2022/04/19 05:57:09;;;;;;;2.15;1.95;;;;;;;6.27;46.14746;94687.08;;;;
2022/04/19 05:58:09;;;;;;;2.15;1.95;;;;;;;6.27;46.14746;94687.08;;;;
2022/04/19 05:59:10;;;;;;;2.15;1.95;;;;;;;6.27;46.14746;94687.08;;;;
2022/04/19 06:00:11;;;;;;;2.15;1.95;;;;;;;6.27;46.14746;94687.08;;;;
2022/04/19 06:01:12;;;;;;;2.15;1.95;;;;;;;6.27;46.14746;94687.08;;;;
2022/04/19 06:07:22;;;;;;;3.35;2.15;;;;;;;6.92;46.08789;94696.56;;;;
2022/04/19 06:08:27;;;;;;;3.35;2.15;;;;;;;6.92;46.08789;94696.56;;;;
2022/04/19 06:09:27;;;;;;;3.35;2.15;;;;;;;6.92;46.08789;94696.56;;;;
2022/04/19 06:10:28;;;;;;;3.35;2.15;;;;;;;6.92;46.08789;94696.56;;;;
2022/04/19 06:11:28;;;;;;;3.35;2.15;;;;;;;6.92;46.08789;94696.56;;;;